Time;durP1;ratioP1;P1;durP2;ratioP2;P2;SDS_P1;SDS_P2;PMS_P1;PMS_P2;Temp;Humidity;BMP_temperature;BMP_pressure;BME280_temperature;BME280_humidity;BME280_pressure;Samples;Min_cycle;Max_cycle;Signal;HPM_P1;HPM_P2
2021/08/09 00:00:19;;;;;;;2.35;1.27;;;;;;;19.32;72.88;99737.81;5073374;28;20328;-70
2021/08/09 00:02:48;;;;;;;1.75;1.17;;;;;;;19.23;73.29;99731.25;5073078;28;20505;-69
2021/08/09 00:05:19;;;;;;;2.42;1.10;;;;;;;19.23;73.50;99726.06;5073304;28;20083;-69
2021/08/09 00:07:48;;;;;;;3.92;1.45;;;;;;;19.34;73.11;99728.25;5073316;28;20037;-69
2021/08/09 00:10:18;;;;;;;2.65;1.20;;;;;;;19.38;72.69;99732.47;5072778;28;20053;-71
2021/08/09 00:12:47;;;;;;;3.60;1.42;;;;;;;19.04;73.22;99744.84;5072960;28;20074;-71
2021/08/09 00:15:16;;;;;;;1.70;1.00;;;;;;;18.99;73.43;99757.09;5072832;28;20490;-71
2021/08/09 00:17:45;;;;;;;1.83;1.10;;;;;;;18.97;73.86;99771.81;5073089;28;20437;-71
2021/08/09 00:20:15;;;;;;;2.20;1.05;;;;;;;19.06;73.90;99774.09;5076465;28;20482;-71
2021/08/09 00:22:46;;;;;;;4.10;1.50;;;;;;;19.13;73.48;99770.41;5076521;28;20391;-71
2021/08/09 00:25:16;;;;;;;2.15;1.10;;;;;;;19.14;73.14;99774.69;5077277;28;20060;-71
2021/08/09 00:27:45;;;;;;;1.90;1.05;;;;;;;19.11;72.87;99778.22;5076666;28;20048;-69
2021/08/09 00:30:14;;;;;;;4.55;1.20;;;;;;;19.07;72.46;99780.97;5075096;28;20086;-69
2021/08/09 00:32:44;;;;;;;4.57;1.38;;;;;;;19.10;72.26;99786.06;5076306;28;20119;-69
2021/08/09 00:35:14;;;;;;;2.92;1.10;;;;;;;19.09;72.15;99786.94;5076280;28;20402;-69
2021/08/09 00:37:43;;;;;;;2.17;1.20;;;;;;;18.99;71.98;99795.91;5075266;28;20101;-69
2021/08/09 00:40:14;;;;;;;3.13;1.48;;;;;;;18.77;72.69;99795.75;5074998;28;20040;-69
2021/08/09 00:42:44;;;;;;;2.55;1.30;;;;;;;18.60;73.12;99798.03;5058219;28;20402;-69
2021/08/09 00:45:14;;;;;;;2.15;1.02;;;;;;;18.51;73.60;99796.59;5074852;28;20048;-69
2021/08/09 00:47:44;;;;;;;2.10;1.15;;;;;;;18.56;73.89;99799.88;5075178;28;20045;-69
2021/08/09 00:50:14;;;;;;;2.35;1.20;;;;;;;18.62;73.59;99799.66;5075248;28;20421;-69
2021/08/09 00:52:46;;;;;;;1.80;1.10;;;;;;;18.39;73.60;99799.50;5076299;28;20064;-69
2021/08/09 00:55:18;;;;;;;2.65;1.02;;;;;;;18.28;74.54;99804.16;5075066;28;20048;-69
2021/08/09 00:57:48;;;;;;;2.40;1.10;;;;;;;18.36;74.50;99806.50;5075768;28;20131;-69
2021/08/09 01:00:20;;;;;;;2.88;1.20;;;;;;;18.30;74.69;99812.72;5057974;28;20106;-70
2021/08/09 01:02:49;;;;;;;1.70;1.00;;;;;;;18.45;74.57;99817.41;5074631;28;20051;-69
2021/08/09 01:05:19;;;;;;;;;;;;;;;18.53;74.23;99812.03;5076486;28;20036;-69
2021/08/09 01:08:00;;;;;;;1.73;1.10;;;;;;;18.60;73.85;99818.72;5074588;28;19974;-69
2021/08/09 01:10:37;;;;;;;3.33;1.10;;;;;;;18.47;73.69;99814.81;5074368;28;20044;-69
2021/08/09 01:13:15;;;;;;;3.42;1.15;;;;;;;18.44;74.10;99813.16;5074652;28;20044;-69
2021/08/09 01:15:48;;;;;;;2.70;1.00;;;;;;;18.27;73.89;99817.97;5074919;28;20086;-69
2021/08/09 01:18:21;;;;;;;3.20;1.00;;;;;;;18.16;74.50;99820.03;5074588;28;20068;-69
2021/08/09 01:20:52;;;;;;;2.40;1.20;;;;;;;18.05;74.68;99829.81;5075354;28;20059;-69
2021/08/09 01:23:46;;;;;;;2.33;1.20;;;;;;;17.91;75.39;99829.38;5074243;28;20045;-69
2021/08/09 01:26:31;;;;;;;1.98;1.10;;;;;;;17.83;75.59;99818.38;5074068;28;20405;-69
2021/08/09 01:29:03;;;;;;;5.53;1.45;;;;;;;17.83;75.76;99815.81;5074070;28;20127;-69
2021/08/09 01:31:39;;;;;;;1.90;1.10;;;;;;;17.80;75.90;99813.34;5075268;28;20052;-70
2021/08/09 01:34:11;;;;;;;2.00;1.30;;;;;;;17.80;76.12;99813.34;5075499;28;20044;-69
2021/08/09 01:36:43;;;;;;;2.30;1.20;;;;;;;17.90;76.47;99801.88;5074199;28;20044;-69
2021/08/09 01:39:13;;;;;;;1.80;1.10;;;;;;;18.04;76.06;99820.38;5073903;28;20048;-69
2021/08/09 01:41:44;;;;;;;1.55;0.95;;;;;;;18.18;75.70;99818.25;5073821;28;20402;-69
2021/08/09 01:44:16;;;;;;;2.15;1.20;;;;;;;18.19;75.20;99814.75;5075335;28;20051;-69
2021/08/09 01:46:47;;;;;;;2.05;1.20;;;;;;;18.14;75.46;99811.47;5074062;28;20040;-69
2021/08/09 01:49:18;;;;;;;3.10;1.35;;;;;;;18.26;75.64;99810.28;5073993;28;20052;-69
2021/08/09 01:51:48;;;;;;;2.53;1.30;;;;;;;18.28;75.38;99811.94;5074708;28;20049;-69
2021/08/09 01:54:20;;;;;;;2.97;1.30;;;;;;;18.33;75.15;99806.63;5073663;28;20128;-69
2021/08/09 01:56:50;;;;;;;3.10;1.50;;;;;;;18.31;75.09;99821.31;5074060;28;20526;-69
2021/08/09 01:59:24;;;;;;;2.00;1.38;;;;;;;18.19;74.92;99829.44;5074720;28;20041;-70
2021/08/09 02:01:54;;;;;;;2.88;1.50;;;;;;;18.21;75.15;99828.47;5073584;28;20127;-70
2021/08/09 02:04:24;;;;;;;6.05;1.67;;;;;;;18.24;75.16;99823.22;5073661;28;20044;-69
2021/08/09 02:06:54;;;;;;;2.78;1.27;;;;;;;18.25;75.04;99824.94;5090817;28;20040;-69
2021/08/09 02:09:24;;;;;;;2.33;1.23;;;;;;;18.19;75.21;99816.53;5073301;28;20464;-69
2021/08/09 02:11:56;;;;;;;2.25;1.30;;;;;;;18.20;75.04;99811.28;5074396;28;20045;-69
2021/08/09 02:14:32;;;;;;;4.55;1.70;;;;;;;18.18;74.95;99813.09;5090117;28;20044;-69
2021/08/09 02:17:08;;;;;;;2.60;1.48;;;;;;;18.16;75.01;99824.34;5073137;28;20043;-69
2021/08/09 02:19:41;;;;;;;3.70;1.85;;;;;;;18.12;75.04;99823.59;5056416;28;20506;-70
2021/08/09 02:22:14;;;;;;;2.15;1.20;;;;;;;18.08;74.98;99833.16;5072955;28;20045;-69
2021/08/09 02:24:49;;;;;;;2.42;1.30;;;;;;;18.11;75.09;99833.97;5074226;28;20048;-70
2021/08/09 02:27:21;;;;;;;2.20;1.38;;;;;;;18.07;75.08;99838.38;5074735;28;20041;-70
2021/08/09 02:29:55;;;;;;;4.00;1.52;;;;;;;18.07;74.98;99844.38;5073167;28;20509;-69
2021/08/09 02:32:28;;;;;;;2.20;1.40;;;;;;;18.09;74.93;99841.78;5074173;28;20086;-69
2021/08/09 02:35:00;;;;;;;4.00;1.48;;;;;;;18.08;74.96;99847.81;5073150;28;20110;-69
2021/08/09 02:37:30;;;;;;;2.70;1.45;;;;;;;18.04;74.93;99856.56;5072746;28;20071;-70
2021/08/09 02:40:01;;;;;;;3.13;1.40;;;;;;;17.99;74.99;99861.00;5072905;28;20157;-70
2021/08/09 02:42:30;;;;;;;2.63;1.40;;;;;;;18.00;74.87;99860.09;5072872;28;20045;-69
2021/08/09 02:45:02;;;;;;;2.47;1.38;;;;;;;17.99;74.88;99866.16;5074169;28;20037;-69
2021/08/09 02:47:34;;;;;;;2.72;1.38;;;;;;;17.99;74.97;99863.59;5072987;28;20051;-69
2021/08/09 02:50:04;;;;;;;3.20;1.35;;;;;;;18.02;74.87;99860.88;5074153;28;20037;-69
2021/08/09 02:52:34;;;;;;;3.03;1.27;;;;;;;18.00;74.88;99870.44;5073004;28;20071;-70
2021/08/09 02:55:04;;;;;;;3.63;1.40;;;;;;;17.98;74.84;99861.88;5073214;28;20041;-69
2021/08/09 02:57:34;;;;;;;2.08;1.40;;;;;;;17.95;74.60;99874.88;5073656;28;20131;-70
2021/08/09 03:00:09;;;;;;;5.18;1.40;;;;;;;17.95;74.76;99878.31;5074027;28;20485;-69
2021/08/09 03:02:42;;;;;;;2.95;1.67;;;;;;;17.93;74.73;99868.91;5072673;28;20051;-69
2021/08/09 03:05:13;;;;;;;2.65;1.35;;;;;;;17.93;74.64;99866.31;5055640;28;20383;-70
2021/08/09 03:07:46;;;;;;;2.25;1.30;;;;;;;17.79;74.81;99873.59;5072823;28;20216;-69
2021/08/09 03:10:17;;;;;;;3.35;1.38;;;;;;;17.60;75.28;99872.38;5073504;28;20397;-70
2021/08/09 03:12:46;;;;;;;2.40;1.38;;;;;;;17.64;75.65;99876.56;5072495;28;20082;-70
2021/08/09 03:15:17;;;;;;;2.38;1.30;;;;;;;17.70;75.68;99879.88;5072710;28;20119;-69
2021/08/09 03:17:52;;;;;;;2.67;1.33;;;;;;;17.78;75.85;99879.66;5072266;28;20402;-70
2021/08/09 03:20:22;;;;;;;2.85;1.67;;;;;;;17.71;75.62;99868.63;5072444;28;20102;-69
2021/08/09 03:22:51;;;;;;;5.70;1.67;;;;;;;17.80;75.64;99885.63;5073927;28;20119;-69
2021/08/09 03:25:21;;;;;;;4.13;1.42;;;;;;;17.55;75.36;99881.97;5072303;28;20040;-70
2021/08/09 03:27:50;;;;;;;2.70;1.20;;;;;;;17.30;76.33;99884.28;5073386;28;20417;-69
2021/08/09 03:30:21;;;;;;;3.10;1.42;;;;;;;17.40;76.62;99894.38;5073306;28;20099;-69
2021/08/09 03:32:50;;;;;;;2.80;1.40;;;;;;;17.35;76.51;99896.22;5072135;28;20045;-70
2021/08/09 03:35:20;;;;;;;2.42;1.30;;;;;;;17.40;76.63;99894.38;5072234;28;20036;-69
2021/08/09 03:37:51;;;;;;;3.35;1.73;;;;;;;17.53;76.77;99904.41;5072182;28;20041;-70
2021/08/09 03:40:21;;;;;;;3.92;1.63;;;;;;;17.65;76.42;99902.38;5072357;28;20051;-69
2021/08/09 03:42:52;;;;;;;2.83;1.30;;;;;;;17.74;76.29;99903.84;5072559;28;20097;-69
2021/08/09 03:45:23;;;;;;;3.25;1.88;;;;;;;17.70;76.05;99897.09;5073279;28;20133;-69
2021/08/09 03:47:52;;;;;;;3.50;1.50;;;;;;;17.78;75.96;99900.31;5072032;28;20102;-69
2021/08/09 03:50:21;;;;;;;3.13;1.45;;;;;;;17.67;76.08;99886.84;5055538;28;20446;-70
2021/08/09 03:52:52;;;;;;;4.57;1.90;;;;;;;17.56;76.21;99887.13;5075459;28;20440;-69
2021/08/09 03:55:22;;;;;;;2.85;1.70;;;;;;;17.61;76.41;99892.16;5076150;28;20128;-70
2021/08/09 03:57:52;;;;;;;4.63;2.63;;;;;;;17.64;76.80;99881.75;5059023;28;20168;-70
2021/08/09 04:00:23;;;;;;;4.32;2.53;;;;;;;17.63;76.94;99887.81;5076947;28;20041;-71
2021/08/09 04:02:53;;;;;;;3.78;2.40;;;;;;;17.60;76.79;99886.16;5076866;28;20402;-70
2021/08/09 04:05:28;;;;;;;4.90;2.90;;;;;;;17.59;77.14;99888.78;5058944;28;20044;-70
2021/08/09 04:07:57;;;;;;;5.07;2.47;;;;;;;17.57;77.35;99890.53;5075604;28;20029;-70
2021/08/09 04:10:27;;;;;;;4.15;2.10;;;;;;;17.52;77.58;99892.38;5075456;28;20049;-70
2021/08/09 04:12:56;;;;;;;4.72;2.22;;;;;;;17.54;77.86;99894.03;5075349;28;20490;-70
2021/08/09 04:15:28;;;;;;;4.22;2.15;;;;;;;17.58;78.10;99887.94;5075326;28;20049;-70
2021/08/09 04:17:58;;;;;;;3.17;1.90;;;;;;;17.58;78.06;99887.94;5075750;28;20123;-69
2021/08/09 04:20:27;;;;;;;5.05;1.85;;;;;;;17.59;78.15;99883.63;5075209;28;20459;-70
2021/08/09 04:22:56;;;;;;;6.28;2.17;;;;;;;17.70;78.29;99886.75;5075375;28;20452;-69
2021/08/09 04:25:27;;;;;;;4.68;1.88;;;;;;;17.73;78.33;99889.28;5075340;28;20041;-69
2021/08/09 04:27:57;;;;;;;3.78;2.10;;;;;;;17.69;78.14;99887.63;5075257;28;20047;-69
2021/08/09 04:30:28;;;;;;;6.22;2.10;;;;;;;17.70;78.01;99887.63;5076635;28;20045;-70
2021/08/09 04:33:03;;;;;;;3.85;2.08;;;;;;;17.78;78.31;99895.16;5076292;28;20187;-69
2021/08/09 04:35:38;;;;;;;;;;;;;;;17.99;78.22;99889.41;5075587;28;20050;-69
2021/08/09 04:38:07;;;;;;;3.35;1.88;;;;;;;18.16;77.79;99897.53;5076474;28;19925;-69
2021/08/09 04:40:36;;;;;;;6.35;2.42;;;;;;;18.34;77.26;99901.31;5074910;28;20089;-70
2021/08/09 04:43:05;;;;;;;4.15;1.90;;;;;;;18.53;76.92;99907.69;5058216;28;20135;-69
2021/08/09 04:45:36;;;;;;;2.80;1.70;;;;;;;18.61;76.67;99906.59;5075031;28;20489;-70
2021/08/09 04:48:05;;;;;;;3.75;1.90;;;;;;;18.87;76.30;99910.13;5075136;28;20548;-70
2021/08/09 04:50:35;;;;;;;;;;;;;;;19.08;75.50;99917.19;5076505;28;20059;-70
2021/08/09 04:53:07;;;;;;;5.03;2.10;;;;;;;19.19;75.27;99915.13;5074829;28;19921;-69
2021/08/09 04:55:37;;;;;;;3.30;2.00;;;;;;;19.14;74.76;99917.03;5075053;28;20079;-70
2021/08/09 04:58:06;;;;;;;4.45;1.92;;;;;;;19.04;74.74;99918.19;5074662;28;20452;-69
2021/08/09 05:00:37;;;;;;;4.35;2.17;;;;;;;19.01;74.53;99915.69;5075750;28;20037;-70
2021/08/09 05:03:07;;;;;;;3.17;1.70;;;;;;;18.92;74.54;99916.00;5057546;28;20052;-70
2021/08/09 05:05:37;;;;;;;5.60;1.80;;;;;;;18.88;74.79;99914.41;5075947;28;20406;-70
2021/08/09 05:08:07;;;;;;;3.80;1.70;;;;;;;18.84;74.81;99912.78;5075143;28;20053;-71
2021/08/09 05:10:36;;;;;;;;;;;;;;;18.89;74.92;99909.16;5076456;28;20049;-70
2021/08/09 05:13:06;;;;;;;4.93;2.00;;;;;;;18.94;74.80;99909.03;5074756;28;20297;-71
2021/08/09 05:15:38;;;;;;;3.30;1.88;;;;;;;18.96;74.98;99907.22;5074310;28;20052;-71
2021/08/09 05:18:12;;;;;;;3.42;1.80;;;;;;;19.19;74.77;99910.81;5075836;28;20048;-72
2021/08/09 05:20:41;;;;;;;5.40;2.00;;;;;;;19.39;74.53;99899.81;5075356;28;20048;-71
2021/08/09 05:23:10;;;;;;;8.98;2.90;;;;;;;19.65;74.06;99912.75;5075905;28;20044;-72
2021/08/09 05:25:40;;;;;;;4.07;2.13;;;;;;;19.72;73.51;99914.25;5075453;28;20102;-68
2021/08/09 05:28:09;;;;;;;4.25;1.92;;;;;;;19.78;73.25;99914.03;5074350;28;20051;-69
2021/08/09 05:30:41;;;;;;;5.47;2.17;;;;;;;19.84;72.81;99913.00;5075484;28;20036;-69
2021/08/09 05:33:11;;;;;;;4.13;1.90;;;;;;;20.00;72.54;99914.13;5075500;28;20449;-69
2021/08/09 05:35:40;;;;;;;;;;;;;;;20.18;72.05;99913.47;5075817;28;20046;-69
2021/08/09 05:38:10;;;;;;;5.18;1.70;;;;;;;20.32;71.52;99918.19;5075237;28;20333;-69
2021/08/09 05:40:42;;;;;;;3.92;2.20;;;;;;;20.51;71.02;99914.88;5074163;28;20094;-69
2021/08/09 05:43:11;;;;;;;3.40;1.65;;;;;;;20.73;70.72;99914.06;5073832;28;20048;-69
2021/08/09 05:45:42;;;;;;;2.85;1.60;;;;;;;20.90;70.18;99906.47;5074092;28;20060;-68
2021/08/09 05:48:12;;;;;;;4.28;1.75;;;;;;;20.71;70.08;99906.31;5073629;28;20048;-68
2021/08/09 05:50:41;;;;;;;5.00;1.88;;;;;;;20.54;70.42;99894.00;5075142;28;20127;-68
2021/08/09 05:53:10;;;;;;;3.50;1.73;;;;;;;20.55;70.57;99906.06;5074823;28;20029;-69
2021/08/09 05:55:41;;;;;;;4.40;2.17;;;;;;;20.62;70.64;99894.56;5073606;28;20475;-69
2021/08/09 05:58:11;;;;;;;2.65;1.50;;;;;;;20.81;70.52;99897.28;5074018;28;20060;-70
2021/08/09 06:00:43;;;;;;;6.43;1.67;;;;;;;20.98;70.08;99894.88;5073694;28;20491;-70
2021/08/09 06:03:18;;;;;;;3.40;1.75;;;;;;;21.12;70.07;99884.81;5073412;28;20075;-70
2021/08/09 06:05:56;;;;;;;5.05;2.20;;;;;;;21.38;69.49;99901.09;5073964;28;20048;-70
2021/08/09 06:08:30;;;;;;;3.60;1.42;;;;;;;21.38;69.23;99905.38;5073540;28;20115;-71
2021/08/09 06:11:00;;;;;;;;;;;;;;;21.38;68.88;99902.75;5073709;28;20093;-71
2021/08/09 06:13:29;;;;;;;5.53;1.73;;;;;;;21.46;68.74;99906.78;5073192;28;19963;-71
2021/08/09 06:16:01;;;;;;;2.88;1.58;;;;;;;21.51;68.32;99910.91;5072433;28;20048;-71
2021/08/09 06:18:33;;;;;;;3.60;1.70;;;;;;;21.60;68.01;99914.88;5073123;28;20040;-70
2021/08/09 06:21:03;;;;;;;3.95;1.73;;;;;;;21.68;68.13;99913.66;5073115;28;20068;-70
2021/08/09 06:23:33;;;;;;;3.35;1.60;;;;;;;21.79;67.89;99905.38;5073381;28;20119;-70
2021/08/09 06:26:02;;;;;;;2.72;1.35;;;;;;;21.91;67.60;99915.28;5074432;28;20036;-70
2021/08/09 06:28:35;;;;;;;2.67;1.55;;;;;;;21.96;67.57;99923.72;5073163;28;20063;-70
2021/08/09 06:31:09;;;;;;;3.55;1.65;;;;;;;21.95;67.46;99927.25;5073471;28;20139;-70
2021/08/09 06:33:39;;;;;;;4.38;1.83;;;;;;;21.71;67.40;99918.72;5073018;28;20041;-70
2021/08/09 06:36:09;;;;;;;4.43;2.30;;;;;;;21.61;67.66;99926.97;5074298;28;20032;-70
2021/08/09 06:38:39;;;;;;;2.90;1.67;;;;;;;21.49;68.13;99927.47;5072760;28;20044;-70
2021/08/09 06:41:08;;;;;;;5.38;1.95;;;;;;;21.32;68.63;99920.38;5072694;28;20048;-70
2021/08/09 06:43:43;;;;;;;4.28;2.00;;;;;;;21.38;68.91;99915.75;5073046;28;20044;-70
2021/08/09 06:46:16;;;;;;;3.00;1.70;;;;;;;21.52;68.75;99917.81;5072673;28;20052;-69
2021/08/09 06:48:46;;;;;;;5.88;1.92;;;;;;;21.63;68.86;99914.75;5072333;28;20040;-69
2021/08/09 06:51:15;;;;;;;3.00;1.85;;;;;;;21.71;68.52;99918.72;5072416;28;20086;-69
2021/08/09 06:53:45;;;;;;;3.58;1.90;;;;;;;22.00;68.09;99925.31;5072489;28;20044;-69
2021/08/09 06:56:15;;;;;;;4.70;1.70;;;;;;;22.21;67.66;99918.31;5072517;28;20039;-69
2021/08/09 06:58:44;;;;;;;4.03;1.83;;;;;;;22.42;66.79;99918.19;5072790;28;20082;-69
2021/08/09 07:01:14;;;;;;;2.95;1.98;;;;;;;22.60;66.11;99922.53;5072730;28;20048;-69
2021/08/09 07:03:46;;;;;;;4.55;1.80;;;;;;;22.70;66.28;99920.41;5072503;28;20041;-69
2021/08/09 07:06:21;;;;;;;3.35;1.75;;;;;;;22.80;65.58;99926.00;5072643;28;20079;-69
2021/08/09 07:08:54;;;;;;;5.45;1.98;;;;;;;22.87;65.46;99924.81;5072363;28;20040;-70
2021/08/09 07:11:24;;;;;;;3.30;1.70;;;;;;;23.00;65.13;99931.16;5072435;28;20060;-69
2021/08/09 07:13:54;;;;;;;3.28;1.83;;;;;;;23.13;64.42;99932.25;5072624;28;20169;-69
2021/08/09 07:16:27;;;;;;;8.77;3.65;;;;;;;23.29;64.09;99934.06;5072130;28;20453;-69
2021/08/09 07:19:02;;;;;;;5.22;1.90;;;;;;;23.35;64.00;99922.50;5055465;28;20130;-68
2021/08/09 07:21:31;;;;;;;3.42;1.73;;;;;;;23.49;63.44;99929.66;5072139;28;20040;-69
2021/08/09 07:24:03;;;;;;;6.70;1.73;;;;;;;23.51;63.13;99923.44;5071741;28;20044;-69
2021/08/09 07:26:33;;;;;;;3.30;1.90;;;;;;;23.63;62.79;99937.63;5073629;28;20123;-69
2021/08/09 07:29:02;;;;;;;4.70;2.13;;;;;;;23.52;62.35;99930.34;5076326;28;20053;-68
2021/08/09 07:31:31;;;;;;;3.33;1.85;;;;;;;23.38;63.42;99931.94;5076572;28;20171;-68
2021/08/09 07:34:02;;;;;;;3.28;1.63;;;;;;;23.56;62.99;99931.88;5076635;28;20025;-68
2021/08/09 07:36:31;;;;;;;3.33;1.80;;;;;;;23.60;62.72;99938.63;5076795;28;20045;-68
2021/08/09 07:39:04;;;;;;;4.32;1.67;;;;;;;23.67;62.44;99929.56;5076160;28;20127;-69
2021/08/09 07:41:34;;;;;;;3.00;1.67;;;;;;;23.74;62.50;99946.59;5059222;28;20462;-69
2021/08/09 07:44:03;;;;;;;3.03;1.60;;;;;;;23.46;62.89;99935.88;5076354;28;20039;-69
2021/08/09 07:46:33;;;;;;;4.50;1.70;;;;;;;23.81;62.74;99937.53;5075930;28;20123;-69
2021/08/09 07:49:04;;;;;;;2.95;1.60;;;;;;;24.11;62.12;99939.53;5075941;28;20051;-69
2021/08/09 07:51:35;;;;;;;2.70;1.42;;;;;;;24.20;61.32;99939.06;5076059;28;20037;-69
2021/08/09 07:54:05;;;;;;;2.67;1.60;;;;;;;24.34;61.30;99941.78;5077653;28;20483;-69
2021/08/09 07:56:34;;;;;;;3.97;1.77;;;;;;;24.49;60.96;99941.81;5075673;28;20039;-68
2021/08/09 07:59:03;;;;;;;3.22;1.63;;;;;;;24.37;61.02;99931.19;5075604;28;20029;-68
2021/08/09 08:01:33;;;;;;;4.18;1.50;;;;;;;24.59;60.13;99945.59;5075425;28;20074;-68
2021/08/09 08:04:05;;;;;;;2.22;1.23;;;;;;;24.77;59.40;99942.94;5075898;28;20474;-68
2021/08/09 08:06:34;;;;;;;2.72;1.55;;;;;;;24.79;58.64;99934.13;5075838;28;20119;-70
2021/08/09 08:09:04;;;;;;;2.60;1.50;;;;;;;24.83;58.59;99932.19;5075595;28;20044;-68
2021/08/09 08:11:33;;;;;;;2.25;1.50;;;;;;;25.00;57.67;99924.25;5075440;28;20094;-68
2021/08/09 08:14:02;;;;;;;2.72;1.38;;;;;;;25.17;57.44;99919.75;5076642;28;20535;-68
2021/08/09 08:16:31;;;;;;;3.58;1.33;;;;;;;25.26;57.07;99905.34;5075699;28;20060;-68
2021/08/09 08:19:00;;;;;;;2.97;1.80;;;;;;;25.50;56.56;99913.56;5076575;28;20048;-68
2021/08/09 08:21:33;;;;;;;5.88;1.67;;;;;;;25.58;55.93;99919.22;5074955;28;20040;-69
2021/08/09 08:24:02;;;;;;;4.20;1.45;;;;;;;25.66;55.84;99912.59;5076017;28;20048;-68
2021/08/09 08:26:31;;;;;;;2.35;1.30;;;;;;;25.86;56.04;99906.19;5076238;28;20049;-69
2021/08/09 08:29:00;;;;;;;2.45;1.30;;;;;;;25.94;55.80;99915.25;5076261;28;20486;-69
2021/08/09 08:31:30;;;;;;;2.72;1.38;;;;;;;26.12;56.28;99902.00;5076427;28;20486;-69
2021/08/09 08:34:00;;;;;;;3.00;1.38;;;;;;;26.24;55.47;99907.34;5076502;28;20063;-69
2021/08/09 08:36:30;;;;;;;2.00;1.33;;;;;;;26.34;54.97;99916.31;5076062;28;20139;-69
2021/08/09 08:39:01;;;;;;;4.35;1.65;;;;;;;26.48;54.34;99905.84;5075296;28;20049;-69
2021/08/09 08:41:36;;;;;;;1.60;1.00;;;;;;;26.59;52.98;99908.63;5074881;28;20033;-69
2021/08/09 08:44:05;;;;;;;2.10;1.30;;;;;;;26.68;52.07;99903.75;5074799;28;20402;-68
2021/08/09 08:46:35;;;;;;;2.63;1.25;;;;;;;26.76;51.44;99906.72;5074956;28;20094;-69
2021/08/09 08:49:05;;;;;;;;;;;;;;;26.82;50.19;99911.59;5075636;28;20059;-69
2021/08/09 08:51:38;;;;;;;2.97;1.20;;;;;;;26.82;50.02;99906.34;5091805;28;19966;-69
2021/08/09 08:54:12;;;;;;;2.30;1.20;;;;;;;26.89;49.21;99908.50;5074751;28;20056;-69
2021/08/09 08:56:43;;;;;;;2.30;1.30;;;;;;;27.06;49.28;99910.88;5075971;28;20118;-69
2021/08/09 08:59:14;;;;;;;1.90;1.20;;;;;;;27.27;49.71;99911.25;5075931;28;20040;-70
2021/08/09 09:01:45;;;;;;;3.60;1.20;;;;;;;27.26;49.61;99906.94;5075915;28;20376;-71
2021/08/09 09:04:22;;;;;;;1.48;1.00;;;;;;;27.08;50.36;99910.75;5075813;28;20124;-71
2021/08/09 09:07:00;;;;;;;2.10;1.30;;;;;;;27.26;49.17;99907.78;5076030;28;20068;-70
2021/08/09 09:09:35;;;;;;;2.42;1.30;;;;;;;27.33;47.99;99910.81;5074411;28;20394;-70
2021/08/09 09:12:13;;;;;;;4.80;1.60;;;;;;;27.42;47.62;99912.91;5075573;28;20059;-70
2021/08/09 09:14:43;;;;;;;2.37;1.20;;;;;;;27.53;46.83;99910.38;5075396;28;20047;-70
2021/08/09 09:17:12;;;;;;;;;;;;;;;27.53;46.35;99913.00;5075986;28;20045;-70
2021/08/09 09:19:43;;;;;;;1.52;1.10;;;;;;;27.64;46.53;99922.81;5074135;28;19920;-70
2021/08/09 09:22:22;;;;;;;1.70;1.08;;;;;;;27.65;46.50;99920.06;5075712;28;20486;-70
2021/08/09 09:24:54;;;;;;;1.15;0.82;;;;;;;27.40;46.16;99904.31;5075475;28;20045;-70
2021/08/09 09:27:29;;;;;;;2.03;1.00;;;;;;;27.62;46.08;99915.03;5075724;28;20063;-70
2021/08/09 09:29:59;;;;;;;2.25;1.20;;;;;;;27.48;45.58;99920.34;5075196;28;20045;-71
2021/08/09 09:32:28;;;;;;;2.20;1.23;;;;;;;27.69;46.39;99916.28;5075461;28;20447;-70
2021/08/09 09:34:58;;;;;;;2.45;1.20;;;;;;;27.89;46.33;99917.56;5073833;28;20517;-70
2021/08/09 09:37:30;;;;;;;2.40;1.10;;;;;;;27.94;46.20;99915.47;5073759;28;20127;-70
2021/08/09 09:40:09;;;;;;;1.98;1.30;;;;;;;27.95;44.85;99913.69;5073660;28;20406;-70
2021/08/09 09:42:40;;;;;;;1.98;1.10;;;;;;;27.98;44.73;99916.13;5074846;28;20116;-70
2021/08/09 09:45:21;;;;;;;2.08;1.20;;;;;;;28.08;44.20;99922.41;5075044;28;20029;-69
2021/08/09 09:48:02;;;;;;;2.80;1.20;;;;;;;28.05;43.44;99914.78;5074758;28;20049;-70
2021/08/09 09:50:32;;;;;;;2.00;1.20;;;;;;;28.10;42.84;99920.56;5073704;28;20128;-70
2021/08/09 09:53:17;;;;;;;1.90;1.05;;;;;;;28.20;42.87;99917.16;5074682;28;20039;-71
2021/08/09 09:55:49;;;;;;;1.73;1.00;;;;;;;28.31;42.90;99913.81;5073728;28;20041;-70
2021/08/09 09:58:19;;;;;;;1.88;1.10;;;;;;;28.40;44.13;99910.53;5074572;28;20062;-70
2021/08/09 10:00:49;;;;;;;3.30;1.30;;;;;;;28.57;43.41;99920.69;5074750;28;20118;-70
2021/08/09 10:03:18;;;;;;;1.73;1.00;;;;;;;28.61;42.74;99922.19;5073085;28;20371;-70
2021/08/09 10:05:48;;;;;;;;;;;;;;;28.71;42.28;99928.47;5074914;28;20037;-71
2021/08/09 10:08:19;;;;;;;2.08;1.15;;;;;;;28.73;42.16;99926.56;5074329;28;19921;-70
2021/08/09 10:10:52;;;;;;;2.35;1.17;;;;;;;28.82;41.75;99919.81;5073781;28;20122;-70
2021/08/09 10:13:22;;;;;;;1.75;1.08;;;;;;;28.94;42.89;99919.75;5074438;28;20486;-70
2021/08/09 10:15:52;;;;;;;2.85;1.40;;;;;;;29.05;42.63;99916.34;5074741;28;20040;-70
2021/08/09 10:18:24;;;;;;;1.80;1.05;;;;;;;29.01;42.21;99913.09;5074624;28;20045;-70
2021/08/09 10:20:54;;;;;;;3.92;1.40;;;;;;;29.10;42.42;99909.81;5074265;28;20101;-70
2021/08/09 10:23:37;;;;;;;1.75;1.20;;;;;;;29.06;40.65;99912.75;5074513;28;20486;-70
2021/08/09 10:26:09;;;;;;;1.83;0.95;;;;;;;29.02;39.54;99914.78;5074267;28;20048;-70
2021/08/09 10:29:00;;;;;;;3.58;1.10;;;;;;;29.16;39.62;99898.84;5074134;28;20048;-70
2021/08/09 10:31:31;;;;;;;2.33;1.20;;;;;;;29.27;39.61;99902.50;5073112;28;20466;-70
2021/08/09 10:34:01;;;;;;;1.38;0.90;;;;;;;29.19;39.47;99909.16;5073904;28;20132;-71
2021/08/09 10:36:59;;;;;;;1.85;1.00;;;;;;;29.12;40.62;99896.56;5073921;28;20044;-70
2021/08/09 10:39:43;;;;;;;;;;;;;;;29.09;40.46;99899.41;5074175;28;20045;-71
2021/08/09 10:42:27;;;;;;;2.00;1.10;;;;;;;29.20;40.07;99900.31;5065630;28;19920;-70
2021/08/09 10:44:57;;;;;;;2.08;1.08;;;;;;;29.28;40.36;99898.91;5074014;28;20048;-70
2021/08/09 10:47:47;;;;;;;1.10;0.90;;;;;;;29.13;41.63;99899.06;5073770;28;20040;-70
2021/08/09 10:50:51;;;;;;;4.70;1.17;;;;;;;29.54;42.25;99898.63;5073675;28;20041;-70
2021/08/09 10:53:42;;;;;;;3.47;1.40;;;;;;;29.40;41.13;99890.94;5072774;28;20398;-70
2021/08/09 10:56:39;;;;;;;3.15;1.10;;;;;;;29.49;40.94;99894.69;5072386;28;20089;-70
2021/08/09 10:59:09;;;;;;;2.03;1.25;;;;;;;29.51;39.83;99900.69;5073521;28;20040;-70
2021/08/09 11:02:00;;;;;;;2.13;1.10;;;;;;;29.46;39.04;99897.53;5055718;28;20440;-71
2021/08/09 11:04:29;;;;;;;2.80;1.38;;;;;;;29.63;38.74;99899.75;5073526;28;20049;-70
2021/08/09 11:06:58;;;;;;;1.98;1.10;;;;;;;29.80;38.42;99900.16;5073466;28;20063;-70
2021/08/09 11:09:44;;;;;;;2.03;0.98;;;;;;;30.04;38.75;99897.47;5073686;28;20052;-71
2021/08/09 11:12:21;;;;;;;2.47;1.38;;;;;;;29.81;39.55;99901.00;5093251;28;20570;-70
2021/08/09 11:15:13;;;;;;;2.22;1.00;;;;;;;29.90;39.01;99895.03;5076080;28;20064;-70
2021/08/09 11:17:55;;;;;;;2.17;1.10;;;;;;;30.02;38.58;99896.72;5093742;28;20094;-70
2021/08/09 11:20:27;;;;;;;1.85;1.00;;;;;;;30.09;38.02;99895.28;5075411;28;20052;-70
2021/08/09 11:23:05;;;;;;;3.25;1.10;;;;;;;30.05;37.64;99893.84;5093743;28;20040;-70
2021/08/09 11:25:37;;;;;;;2.45;1.10;;;;;;;30.21;37.92;99891.69;5093928;28;20047;-70
2021/08/09 11:28:09;;;;;;;2.20;1.17;;;;;;;30.40;36.82;99894.59;5075618;28;20548;-71
2021/08/09 11:30:44;;;;;;;1.92;1.00;;;;;;;30.47;36.83;99885.22;5093903;28;20044;-70
2021/08/09 11:33:30;;;;;;;1.52;0.98;;;;;;;30.58;36.40;99888.81;5093653;28;20036;-70
2021/08/09 11:36:00;;;;;;;1.23;0.90;;;;;;;30.54;36.02;99887.41;5093500;28;20094;-71
2021/08/09 11:38:42;;;;;;;3.05;1.10;;;;;;;30.70;35.64;99885.19;5075552;28;20118;-71
2021/08/09 11:41:12;;;;;;;2.03;1.20;;;;;;;30.75;35.57;99878.59;5093682;28;20055;-70
2021/08/09 11:43:42;;;;;;;4.88;1.15;;;;;;;30.72;35.35;99878.00;5093716;28;20039;-70
2021/08/09 11:46:12;;;;;;;;;;;;;;;30.59;35.27;99872.06;5094185;28;20044;-70
2021/08/09 11:48:47;;;;;;;1.83;1.17;;;;;;;30.60;35.72;99868.44;5093714;28;20289;-70
2021/08/09 11:51:24;;;;;;;2.40;1.17;;;;;;;30.74;35.38;99870.81;5093411;28;20044;-70
2021/08/09 11:53:56;;;;;;;2.83;1.10;;;;;;;30.95;35.52;99869.13;5093534;28;20040;-70
2021/08/09 11:56:30;;;;;;;2.08;1.20;;;;;;;31.10;35.19;99862.56;5093627;28;20032;-70
2021/08/09 11:58:59;;;;;;;1.85;1.05;;;;;;;31.22;35.07;99866.81;5093467;28;20044;-70